• Join FlightAware (Why Join?)
  • Login
  • US Flag 
01:00PM EDT


 

Airport Tracker/Info


-or-


 

Live Flight TrackerFlight Track Log ✈ SWA2167 ✈ 04-May-2013 ✈ KMDW - KMHT

Flight Track Log - Related Links

Times and Time Zones

All times are in EDT time to prevent confusion due to time zone crossing. See the SWA2167 flight status page for this flight to view local times or setup timezone preferences in your user account.

Time Position Orientation Groundspeed Altitude Reporting Facility
EDT Latitude Longitude Course Direction KTS MPH feet Rate Location/Type
09:07PM 41.8333 -87.7500 90° East 207 238 2,900  Level Chicago TRACON
09:09PM 41.8100 -87.5503 99° East 262 302 10,000 3,120 Climbing Chicago Center
09:10PM 41.8017 -87.4514 96° East 267 307 13,200 2,340 Climbing Chicago Center
09:11PM 41.8078 -87.3344 86° East 316 364 14,800 2,100 Climbing Chicago Center
09:12PM 41.7500 -87.0095 90° East  Level FlightAware Approximate
09:12PM 41.8178 -87.2017 84° East 352 405 17,500  Level Chicago Center
09:13PM 41.8278 -87.0678 84° East 360 414 20,000 2,100 Climbing Chicago Center
09:14PM 41.8392 -86.9264 84° East 378 435 21,900 1,860 Climbing Chicago Center
09:15PM 41.8489 -86.7781 85° East 398 458 23,800 1,860 Climbing Chicago Center
09:16PM 41.8597 -86.6222 85° East 409 471 25,800 1,680 Climbing Chicago Center
09:17PM 41.8706 -86.4658 85° East 420 483 27,300 1,560 Climbing Chicago Center
09:18PM 41.8833 -86.2728 85° East 432 497 29,100 1,680 Climbing Chicago Center
09:19PM 41.8956 -86.1094 84° East 440 506 30,800 1,560 Climbing Chicago Center
09:20PM 41.9061 -85.9478 85° East 435 501 32,300 1,380 Climbing Chicago Center
09:21PM 41.9164 -85.7861 85° East 434 499 33,700 1,440 Climbing Chicago Center
09:22PM 41.9267 -85.6258 85° East 428 493 35,300 1,440 Climbing Chicago Center
09:23PM 41.9375 -85.4692 85° East 418 481 36,700 1,020 Climbing Chicago Center
09:24PM 41.9456 -85.3717 84° East 419 482 37,000 180 Climbing Cleveland Center
09:25PM 41.9539 -85.2158 86° East 419 482 37,000  Level Cleveland Center
09:26PM 41.9539 -85.0594 90° East 419 482 37,000  Level Cleveland Center
09:27PM 41.9536 -84.9058 90° East 419 482 37,000  Level Cleveland Center
09:28PM 41.9528 -84.7550 90° East 419 482 37,000  Level Cleveland Center
09:29PM 41.9500 -84.5983 91° East 419 482 37,000  Level Cleveland Center
09:30PM 41.9492 -84.4419 90° East 419 482 37,000  Level Cleveland Center
09:31PM 41.9481 -84.2883 91° East 419 482 37,000  Level Cleveland Center
09:32PM 41.9419 -84.1511 93° East 419 482 37,000  Level Cleveland Center
09:33PM 41.9403 -83.9975 91° East 414 476 37,000  Level Cleveland Center
09:34PM 41.9367 -83.8408 92° East 409 471 37,000  Level Cleveland Center
09:35PM 41.9347 -83.6872 91° East 409 471 37,000  Level Cleveland Center
09:36PM 41.9350 -83.5169 90° East 416 479 37,000  Level Cleveland Center
09:37PM 41.9533 -83.3586 81° East 416 479 37,000  Level Cleveland Center
09:38PM 41.9739 -83.2031 80° East 427 491 37,000  Level Cleveland Center
09:39PM 41.9894 -83.0556 82° East 427 491 37,000  Level Cleveland Center
09:40PM 42.0094 -82.8969 80° East 427 491 37,000  Level Cleveland Center
09:41PM 42.0292 -82.7411 80° East 427 491 37,000  Level Cleveland Center
09:42PM 42.0467 -82.5825 81° East 427 491 37,000  Level Cleveland Center
09:43PM 42.0661 -82.4236 81° East 427 491 37,000  Level Cleveland Center
09:44PM 42.0875 -82.2450 81° East 432 497 37,000  Level Cleveland Center
09:45PM 42.1042 -82.1028 81° East 432 497 37,000  Level Cleveland Center
09:46PM 42.1228 -81.9408 81° East 427 491 37,000  Level Cleveland Center
09:47PM 42.1414 -81.7817 81° East 427 491 37,000  Level Cleveland Center
09:48PM 42.1594 -81.6194 81° East 427 491 37,000  Level Cleveland Center
09:49PM 42.1797 -81.4433 81° East 427 491 37,000  Level Cleveland Center
09:50PM 42.1956 -81.2839 82° East 427 491 37,000  Level Cleveland Center
09:51PM 42.2131 -81.1186 82° East 433 498 37,000  Level Cleveland Center
09:52PM 42.2325 -80.9617 80° East 428 493 37,000  Level Cleveland Center
09:53PM 42.2453 -80.7992 84° East 428 493 37,000  Level Cleveland Center
09:54PM 42.2622 -80.6364 82° East 428 493 37,000  Level Cleveland Center
09:55PM 42.2831 -80.4736 80° East 433 498 37,000  Level Cleveland Center
09:56PM 42.2953 -80.3081 84° East 439 505 37,000  Level Cleveland Center
09:57PM 42.3114 -80.1619 81° East 445 512 37,000  Level Cleveland Center
09:58PM 42.3253 -79.9961 83° East 445 512 37,000  Level Cleveland Center
09:59PM 42.3411 -79.8358 82° East 445 512 37,000  Level Cleveland Center
10:00PM 42.3567 -79.6700 83° East 445 512 37,000  Level Cleveland Center
10:01PM 42.3739 -79.5039 82° East 445 512 37,000  Level Cleveland Center
10:02PM 42.3889 -79.3378 83° East 445 512 37,000  Level Cleveland Center
10:03PM 42.4017 -79.1744 84° East 445 512 37,000  Level Cleveland Center
10:04PM 42.4183 -79.0081 82° East 445 512 37,000  Level Cleveland Center
10:05PM 42.4325 -78.8447 83° East 445 512 37,000  Level Cleveland Center
10:06PM 42.4467 -78.6783 83° East 445 512 37,000  Level Cleveland Center
10:07PM 42.4603 -78.5117 84° East 445 512 37,000  Level Cleveland Center
10:08PM 42.4719 -78.3508 84° East 445 512 37,000  Level Cleveland Center
10:09PM 42.4872 -78.1814 83° East 445 512 37,000  Level Cleveland Center
10:10PM 42.4983 -78.0178 85° East 445 512 37,000  Level Cleveland Center
10:11PM 42.5092 -77.8567 85° East 445 512 37,000  Level Cleveland Center
10:12PM 42.5261 -77.6953 82° East 440 506 37,000  Level Cleveland Center
10:13PM 42.5344 -77.5314 86° East 440 506 37,000  Level Cleveland Center
10:14PM 42.5467 -77.3644 84° East 440 506 37,000  Level Cleveland Center
10:16PM 42.5681 -77.0869 84° East 446 513 37,000  Level Boston Center
10:17PM 42.5786 -76.9242 85° East 441 507 37,000  Level Boston Center
10:18PM 42.5892 -76.7583 85° East 441 507 37,000  Level Boston Center
10:19PM 42.6017 -76.5956 84° East 441 507 37,000  Level Boston Center
10:20PM 42.6117 -76.4297 85° East 441 507 37,000  Level Boston Center
10:21PM 42.6217 -76.2639 85° East 441 507 37,000  Level Boston Center
10:22PM 42.6333 -76.0981 84° East 441 507 37,000  Level Boston Center
10:23PM 42.6425 -75.9347 86° East 441 507 37,000  Level Boston Center
10:24PM 42.6517 -75.7714 86° East 441 507 37,000  Level Boston Center
10:25PM 42.6606 -75.6053 86° East 441 507 37,000  Level Boston Center
10:26PM 42.6692 -75.4419 86° East 441 507 37,000  Level Boston Center
10:27PM 42.6778 -75.2728 86° East 441 507 37,000 -840 Level Boston Center
10:28PM 42.6858 -75.1122 86° East 441 507 35,400 -1,800 Descending Boston Center
10:29PM 42.6958 -74.9489 85° East 436 502 33,400 -2,040 Descending Boston Center
10:30PM 42.7033 -74.7936 86° East 426 490 31,400 -1,800 Descending Boston Center
10:31PM 42.7106 -74.6414 86° East 411 473 29,500 -1,140 Descending Boston Center
10:32PM 42.7178 -74.4692 87° East 391 450 29,000 -300 Descending Boston Center
10:33PM 42.7244 -74.3225 86° East 385 443 29,000  Level Boston Center
10:34PM 42.7308 -74.1814 86° East 385 443 29,000  Level Boston Center
10:35PM 42.7372 -74.0372 86° East 380 437 29,000  Level Boston Center
10:36PM 42.7433 -73.8961 87° East 380 437 29,000  Level Boston Center
10:37PM 42.7469 -73.7575 88° East 375 432 29,000  Level Boston Center
10:38PM 42.7572 -73.5994 85° East 375 432 29,000  Level Boston Center
10:39PM 42.7606 -73.4581 88° East 375 432 29,000 -720 Level Boston Center
10:40PM 42.7658 -73.3197 87° East 369 425 27,600 -1,680 Descending Boston Center
10:41PM 42.7711 -73.1839 87° East 364 419 25,700 -1,680 Descending Boston Center
10:42PM 42.7739 -73.0764 88° East 364 419 24,300 -1,680 Descending Boston Center
10:43PM 42.7786 -72.9125 88° East 355 409 22,400 -1,800 Descending Boston Center
10:44PM 42.7811 -72.7967 88° East 337 388 20,800 -1,620 Descending Boston Center
10:45PM 42.7836 -72.6664 88° East 329 379 19,200 -1,500 Descending Boston Center
10:46PM 42.7900 -72.5703 85° East 315 362 17,800 -1,440 Descending Boston Center
10:47PM 42.7922 -72.4542 88° East 308 354 16,400 -1,560 Descending Boston Center
10:48PM 42.7942 -72.3383 89° East 308 354 14,700 -1,740 Descending Boston Center
10:49PM 42.7983 -72.2250 87° East 303 349 13,000 -1,740 Descending Boston Center
10:50PM 42.8083 -72.1061 83° East 298 343 11,300 -1,680 Descending Boston Center
10:51PM 42.8183 -71.9958 83° East 291 335 9,700 -1,440 Descending Boston Center
10:52PM 42.8139 -71.8967 93° East 278 320 8,500 -1,620 Descending Boston Center
10:53PM 42.8028 -71.7978 99° East 263 303 6,500 -1,800 Descending Boston Center
10:54PM 42.8128 -71.7069 81° East 248 285 4,900 -1,260 Descending Boston Center
10:55PM 42.8372 -71.6247 68° East 235 270 4,000 -1,320 Descending Boston Center
10:56PM 42.8575 -71.5508 69° East 211 243 2,300 -1,320 Descending Boston Center
10:57PM 42.8864 -71.5050 49° Northeast 172 198 1,400 -840 Descending Boston Center
10:58PM 42.9153 -71.4650 45° Northeast 148 170 700 13,800 Descending Boston Center
10:59PM 42.9400 -71.4333 43° Northeast 138 159 29,000 14,100 Climbing Boston Center
11:00PM 42.9667 -71.3958 46° Northeast 138 159 29,000  Level Boston Center
11:01PM 42.9914 -71.3614 46° Northeast 138 159 29,000  Level Boston Center
11:02PM 43.0181 -71.3242 46° Northeast 138 159 29,000  Level Boston Center
11:03PM 43.0283 -71.3097 46° Northeast 138 159 29,000  Level Boston Center
11:04PM 43.0283 -71.3097 334° Northwest 138 159 29,000  Level Boston Center
11:06PM 42.9328 -71.4358 316° Northwest  Level Estimated
11:13PM 42.9328 -71.4358 316° Northwest  Level Estimated
11:14PM 42.9328 -71.4358 316° Northwest  Level Estimated
11:15PM 42.9328 -71.4358 316° Northwest  Level Estimated
11:16PM 42.9328 -71.4358 316° Northwest  Level Estimated
11:17PM 42.9328 -71.4358 316° Northwest  Level Estimated